Harrison, AR

2:45 AM CDT on September 02, 2014 (GMT -0500)
AJ5C - Northwest Harrison | Change Station
CLOSE
Current Station
Personal Weather Station
Location: Harrison, AR
Elevation: 1266 ft
Nearby Weather Stations

Elev 1266 ft 36.26 °N, 93.15 °W | Updated 3 seconds ago

Clear
Clear
75.4 °F
Feels Like 74 °F
N
1.2
Wind Variable Wind from WSW
Gusts 1.2 mph

Today
High -- | Low -- °F
--% Chance of Precip.
Yesterday
High -- | Low -- °F
Precip. -- in
6:44 AM 7:38 PM
Waxing Crescent, 49% visible
Pressure 29.96 in
Visibility 10.0 miles
Clouds Clear
Heat Index 74 °F
Dew Point 74 °F
Humidity 94%
Rainfall 0.00 in
Snow Depth Not available.
UV 0 out of 12
Pollen 11.40 out of 12
Air Quality Not available.
Flu Activity Not available.
SPECI KHRO 020735Z AUTO 16005KT 10SM VCTS CLR 24/22 A2996 RMK AO2 LTG DSNT N AND NW T02390217

More Conditions Fewer Conditions

Pressure 29.96 in
Visibility 10.0 miles
Clouds Clear
Heat Index 74 °F
Dew Point 74 °F
Humidity 94%
Rainfall 0.00 in
Snow Depth Not available.
UV 0 out of 12
Pollen 11.40 out of 12
Air Quality Not available.
Flu Activity Not available.
SPECI KHRO 020735Z AUTO 16005KT 10SM VCTS CLR 24/22 A2996 RMK AO2 LTG DSNT N AND NW T02390217

More Conditions Fewer Conditions

10-Day Weather Forecast

Almanac

Astronomy

Sep. 02, 2014 Rise Set
Actual Time 6:44 AM CDT 7:38 PM CDT
Civil Twilight 6:18 AM CDT 8:04 PM CDT
Nautical Twilight 5:47 AM CDT 8:35 PM CDT
Astronomical Twilight 5:15 AM CDT 9:07 PM CDT
Moon 2:17 PM CDT No Moon Set
Length of Visible Light 13h 46m
Length of Day
12h 53m
Tomorrow will be 2m 13s shorter.
Waxing Crescent, 49% of the Moon is Illuminated
Today
Waxing Crescent
Sep 2
First Quarter
Sep 8
Full
Sep 15
Last Quarter
Sep 24
New

Today's Extremes

State Highs State Lows

Community

WunderPhotos

Upload Photos

1,749,589 photos uploaded!

WunderBlogs® & News

Nearby

Snow Depth

Station Depth Elevation
No new snow has been reported.

Earthquake Activity

City Distance Mag. Time & Date
No recent earthquake activity has been reported nearby.
Minimum magnitude displayed is 2.5.

Coastal Water Temperatures

Place Temperature
No Stations Reporting

Nearby Weather Stations